createdAt,value
2018-08-12T00:01:30.600Z,99.90
2018-08-12T00:03:58.903Z,99.90
2018-08-12T00:06:27.311Z,99.90
2018-08-12T00:08:55.620Z,99.90
2018-08-12T00:11:23.936Z,99.90
2018-08-12T00:13:52.195Z,99.90
2018-08-12T00:16:21.172Z,99.90
2018-08-12T00:18:49.449Z,99.90
2018-08-12T00:21:17.752Z,99.90
2018-08-12T00:23:46.005Z,99.90
2018-08-12T00:26:20.944Z,99.90
2018-08-12T00:28:49.176Z,99.90
2018-08-12T00:31:17.442Z,99.90
2018-08-12T00:33:45.697Z,99.90
2018-08-12T00:36:13.946Z,99.90
2018-08-12T00:38:42.970Z,99.90
2018-08-12T00:41:11.218Z,99.90
2018-08-12T00:43:39.461Z,99.90
2018-08-12T00:46:07.710Z,99.90
2018-08-12T00:48:35.927Z,99.90
2018-08-12T00:51:04.111Z,99.90
2018-08-12T00:53:32.409Z,99.90
2018-08-12T00:56:00.740Z,99.90
2018-08-12T00:58:29.011Z,99.90
2018-08-12T01:00:57.348Z,99.90
2018-08-12T01:03:25.986Z,99.90
2018-08-12T01:05:54.227Z,99.90
2018-08-12T01:08:22.488Z,99.90
2018-08-12T01:10:51.448Z,99.90
2018-08-12T01:13:19.665Z,99.90
2018-08-12T01:15:47.976Z,99.90
2018-08-12T01:18:16.217Z,99.90
2018-08-12T01:20:44.491Z,99.90
2018-08-12T01:23:12.768Z,99.90
2018-08-12T01:25:41.069Z,99.90
2018-08-12T01:28:09.353Z,99.90
2018-08-12T01:30:37.669Z,99.90
2018-08-12T01:33:06.154Z,99.90
2018-08-12T01:35:34.432Z,99.90
2018-08-12T01:38:03.381Z,99.90
2018-08-12T01:40:31.689Z,99.90
2018-08-12T01:42:59.980Z,99.90
2018-08-12T01:45:28.304Z,99.90
2018-08-12T01:47:56.607Z,99.90
2018-08-12T01:50:24.879Z,99.90
2018-08-12T01:52:53.100Z,99.90
2018-08-12T01:55:22.602Z,99.90
2018-08-12T01:57:50.809Z,99.90
2018-08-12T02:00:21.344Z,99.90
2018-08-12T02:02:50.288Z,99.90
2018-08-12T02:05:19.146Z,99.90
2018-08-12T02:07:47.485Z,99.90
2018-08-12T02:10:16.747Z,99.90
2018-08-12T02:12:45.004Z,99.90
2018-08-12T02:15:13.362Z,99.90
2018-08-12T02:17:42.164Z,99.90
2018-08-12T02:20:11.185Z,99.90
2018-08-12T02:22:40.602Z,99.90
2018-08-12T02:25:09.916Z,99.90
2018-08-12T02:27:38.307Z,99.90
2018-08-12T02:30:08.223Z,99.90
2018-08-12T02:32:36.591Z,99.90
2018-08-12T02:35:05.290Z,99.90
2018-08-12T02:37:33.505Z,99.90
2018-08-12T02:40:01.891Z,99.90
2018-08-12T02:42:30.175Z,99.90
2018-08-12T02:44:58.461Z,99.90
2018-08-12T02:47:26.851Z,99.90
2018-08-12T02:49:55.150Z,99.90
2018-08-12T02:52:23.432Z,99.90
2018-08-12T02:54:51.691Z,99.90
2018-08-12T02:57:19.941Z,99.90
2018-08-12T02:59:48.156Z,99.90
2018-08-12T03:02:16.405Z,99.90
2018-08-12T03:04:44.665Z,99.90
2018-08-12T03:07:12.872Z,99.90
2018-08-12T03:09:41.146Z,99.90
2018-08-12T03:12:09.420Z,99.90
2018-08-12T03:14:37.674Z,99.90
2018-08-12T03:17:05.941Z,99.90
2018-08-12T03:19:34.194Z,99.90
2018-08-12T03:22:02.452Z,99.90
2018-08-12T03:24:30.765Z,99.90
2018-08-12T03:26:59.042Z,99.90
2018-08-12T03:29:27.380Z,99.90
2018-08-12T03:31:55.715Z,99.90
2018-08-12T03:34:23.957Z,99.90
2018-08-12T03:36:52.228Z,99.90
2018-08-12T03:39:20.402Z,99.90
2018-08-12T03:41:48.643Z,99.90
2018-08-12T03:44:16.905Z,99.90
2018-08-12T03:46:45.267Z,99.90
2018-08-12T03:49:13.467Z,99.90
2018-08-12T03:51:41.682Z,99.90
2018-08-12T03:54:09.918Z,99.90
2018-08-12T03:56:38.151Z,99.90
2018-08-12T03:59:06.387Z,99.90
2018-08-12T04:01:34.617Z,99.90
2018-08-12T04:04:02.872Z,99.90
2018-08-12T04:06:31.176Z,99.90
2018-08-12T04:08:59.470Z,99.90
2018-08-12T04:11:27.772Z,99.90
2018-08-12T04:13:57.099Z,99.90
2018-08-12T04:16:25.376Z,99.90
2018-08-12T04:18:53.687Z,99.90
2018-08-12T04:21:22.516Z,99.90
2018-08-12T04:23:50.747Z,99.90
2018-08-12T04:26:18.998Z,99.90
2018-08-12T04:28:47.240Z,99.90
2018-08-12T04:31:15.510Z,99.90
2018-08-12T04:33:43.768Z,99.90
2018-08-12T04:36:11.976Z,99.90
2018-08-12T04:38:40.248Z,99.90
2018-08-12T04:41:08.633Z,99.90
2018-08-12T04:43:36.862Z,99.90
2018-08-12T04:46:05.281Z,99.90
2018-08-12T04:48:33.444Z,99.90
2018-08-12T04:51:01.769Z,99.90
2018-08-12T04:53:30.102Z,99.90
2018-08-12T04:55:58.337Z,99.90
2018-08-12T04:58:26.557Z,99.90
2018-08-12T05:00:54.834Z,99.90
2018-08-12T05:03:23.087Z,99.90
2018-08-12T05:05:51.297Z,99.90
2018-08-12T05:08:19.577Z,99.90
2018-08-12T05:10:47.806Z,99.90
2018-08-12T05:13:16.029Z,99.90
2018-08-12T05:15:44.292Z,99.90
2018-08-12T05:18:12.507Z,99.90
2018-08-12T05:20:40.728Z,99.90
2018-08-12T05:23:08.965Z,99.90
2018-08-12T05:25:37.164Z,99.90
2018-08-12T05:28:05.459Z,99.90
2018-08-12T05:30:33.723Z,99.90
2018-08-12T05:33:01.960Z,99.90
2018-08-12T05:35:30.258Z,99.90
2018-08-12T05:37:58.595Z,99.90
2018-08-12T05:40:26.897Z,99.90
2018-08-12T05:42:55.188Z,99.90
2018-08-12T05:45:23.788Z,99.90
2018-08-12T05:47:52.008Z,99.90
2018-08-12T05:50:20.251Z,99.90
2018-08-12T05:52:48.564Z,99.90
2018-08-12T05:55:16.767Z,99.90
2018-08-12T05:57:44.998Z,99.90
2018-08-12T06:00:14.697Z,99.90
2018-08-12T06:02:44.142Z,99.90
2018-08-12T06:05:12.380Z,99.90
2018-08-12T06:07:40.644Z,99.90
2018-08-12T06:10:10.504Z,99.90
2018-08-12T06:12:38.898Z,99.90
2018-08-12T06:15:08.647Z,99.90
2018-08-12T06:17:37.049Z,99.90
2018-08-12T06:20:06.208Z,99.20
2018-08-12T06:22:34.444Z,98.10
2018-08-12T06:25:02.724Z,96.40
2018-08-12T06:27:30.970Z,94.70
2018-08-12T06:29:59.250Z,93.50
2018-08-12T06:32:27.526Z,91.80
2018-08-12T06:34:55.781Z,91.00
2018-08-12T06:37:24.532Z,89.80
2018-08-12T06:39:53.796Z,86.20
2018-08-12T06:42:22.013Z,84.50
2018-08-12T06:44:50.347Z,81.00
2018-08-12T06:47:18.577Z,79.30
2018-08-12T06:49:46.940Z,78.80
2018-08-12T06:52:15.240Z,82.10
2018-08-12T06:54:43.453Z,84.20
2018-08-12T06:57:11.726Z,84.90
2018-08-12T06:59:39.946Z,85.60
2018-08-12T07:02:08.209Z,85.70
2018-08-12T07:04:36.441Z,83.40
2018-08-12T07:07:04.816Z,81.00
2018-08-12T07:09:33.038Z,80.80
2018-08-12T07:12:01.331Z,81.50
2018-08-12T07:14:29.631Z,78.70
2018-08-12T07:16:57.981Z,77.20
2018-08-12T07:19:26.241Z,75.70
2018-08-12T07:21:54.533Z,72.80
2018-08-12T07:24:22.803Z,72.30
2018-08-12T07:26:51.084Z,71.40
2018-08-12T07:29:19.349Z,71.70
2018-08-12T07:31:47.613Z,69.00
2018-08-12T07:34:15.831Z,68.50
2018-08-12T07:36:44.343Z,68.10
2018-08-12T07:39:12.560Z,69.30
2018-08-12T07:41:40.841Z,68.30
2018-08-12T07:44:09.074Z,67.20
2018-08-12T07:46:37.310Z,67.70
2018-08-12T07:49:05.565Z,67.50
2018-08-12T07:51:33.869Z,71.20
2018-08-12T07:54:02.111Z,69.30
2018-08-12T07:56:30.413Z,72.70
2018-08-12T07:58:58.723Z,75.70
2018-08-12T08:01:27.063Z,77.50
2018-08-12T08:03:55.514Z,77.60
2018-08-12T08:06:23.906Z,79.30
2018-08-12T08:08:52.154Z,80.60
2018-08-12T08:11:20.388Z,84.60
2018-08-12T08:13:48.672Z,86.50
2018-08-12T08:16:17.541Z,90.00
2018-08-12T08:18:45.799Z,90.30
2018-08-12T08:21:14.147Z,90.80
2018-08-12T08:23:42.379Z,91.90
2018-08-12T08:26:10.675Z,92.70
2018-08-12T08:28:38.937Z,94.30
2018-08-12T08:31:07.216Z,94.40
2018-08-12T08:33:35.451Z,95.10
2018-08-12T08:36:03.705Z,95.00
2018-08-12T08:38:32.006Z,95.50
2018-08-12T08:41:00.299Z,94.40
2018-08-12T08:43:28.654Z,96.10
2018-08-12T08:45:56.910Z,94.70
2018-08-12T08:48:25.876Z,94.80
2018-08-12T08:50:54.089Z,95.20
2018-08-12T08:53:22.343Z,95.30
2018-08-12T08:55:50.706Z,95.70
2018-08-12T08:58:18.900Z,95.00
2018-08-12T09:00:47.130Z,95.40
2018-08-12T09:03:15.431Z,94.40
2018-08-12T09:05:43.679Z,95.10
2018-08-12T09:08:12.043Z,95.30
2018-08-12T09:10:40.188Z,95.90
2018-08-12T09:13:08.440Z,95.90
2018-08-12T09:15:36.699Z,97.10
2018-08-12T09:18:05.258Z,95.20
2018-08-12T09:20:33.520Z,94.80
2018-08-12T09:23:01.808Z,94.00
2018-08-12T09:25:30.219Z,94.10
2018-08-12T09:27:58.507Z,93.60
2018-08-12T09:30:26.839Z,92.50
2018-08-12T09:32:55.124Z,93.10
2018-08-12T09:35:23.415Z,93.20
2018-08-12T09:37:51.640Z,91.20
2018-08-12T09:40:19.932Z,90.90
2018-08-12T09:42:48.637Z,91.40
2018-08-12T09:45:19.526Z,90.90
2018-08-12T09:47:47.819Z,90.20
2018-08-12T09:50:17.385Z,90.80
2018-08-12T09:52:47.343Z,89.50
2018-08-12T09:55:16.138Z,87.20
2018-08-12T09:57:44.399Z,89.60
2018-08-12T10:00:19.341Z,90.40
2018-08-12T10:02:47.713Z,87.30
2018-08-12T10:05:16.452Z,89.30
2018-08-12T10:07:44.749Z,89.00
2018-08-12T10:10:13.039Z,90.00
2018-08-12T10:12:41.910Z,88.20
2018-08-12T10:15:10.300Z,88.20
2018-08-12T10:17:40.478Z,89.70
2018-08-12T10:20:09.491Z,88.60
2018-08-12T10:22:37.844Z,90.00
2018-08-12T10:25:07.333Z,89.30
2018-08-12T10:27:35.604Z,89.00
2018-08-12T10:30:04.978Z,89.90
2018-08-12T10:32:33.252Z,89.30
2018-08-12T10:35:01.568Z,90.30
2018-08-12T10:37:29.912Z,91.00
2018-08-12T10:39:58.178Z,92.20
2018-08-12T10:42:26.552Z,92.10
2018-08-12T10:44:55.071Z,91.80
2018-08-12T10:47:23.319Z,91.10
2018-08-12T10:49:51.558Z,91.60
2018-08-12T10:52:19.874Z,92.30
2018-08-12T10:54:48.137Z,93.30
2018-08-12T10:57:16.412Z,93.80
2018-08-12T10:59:44.723Z,94.10
2018-08-12T11:02:12.978Z,95.20
2018-08-12T11:04:41.235Z,95.50
2018-08-12T11:07:09.578Z,95.70
2018-08-12T11:09:37.804Z,95.40
2018-08-12T11:12:06.496Z,96.40
2018-08-12T11:14:34.892Z,96.40
2018-08-12T11:17:03.298Z,96.20
2018-08-12T11:19:31.591Z,96.90
2018-08-12T11:21:59.916Z,97.70
2018-08-12T11:24:28.224Z,98.00
2018-08-12T11:26:56.503Z,97.30
2018-08-12T11:29:24.778Z,96.60
2018-08-12T11:31:53.050Z,96.90
2018-08-12T11:34:21.469Z,96.50
2018-08-12T11:36:49.724Z,96.10
2018-08-12T11:39:17.949Z,94.80
2018-08-12T11:41:46.264Z,96.00
2018-08-12T11:44:14.527Z,95.50
2018-08-12T11:46:42.773Z,95.40
2018-08-12T11:49:11.104Z,94.50
2018-08-12T11:51:39.387Z,94.00
2018-08-12T11:54:07.640Z,94.30
2018-08-12T11:56:35.960Z,94.10
2018-08-12T11:59:04.374Z,94.40
2018-08-12T12:01:32.695Z,94.20
2018-08-12T12:04:00.978Z,94.00
2018-08-12T12:06:29.290Z,94.60
2018-08-12T12:08:57.695Z,94.20
2018-08-12T12:11:26.005Z,94.30
2018-08-12T12:13:54.292Z,94.30
2018-08-12T12:16:22.575Z,93.50
2018-08-12T12:18:50.917Z,93.70
2018-08-12T12:21:19.152Z,93.20
2018-08-12T12:23:47.431Z,94.00
2018-08-12T12:26:15.714Z,93.80
2018-08-12T12:28:43.962Z,93.90
2018-08-12T12:31:12.221Z,94.10
2018-08-12T12:33:40.522Z,94.30
2018-08-12T12:36:08.897Z,95.00
2018-08-12T12:38:37.177Z,95.10
2018-08-12T12:41:05.533Z,94.80
2018-08-12T12:43:33.940Z,94.10
2018-08-12T12:46:03.214Z,94.10
2018-08-12T12:48:31.555Z,94.40
2018-08-12T12:50:59.871Z,94.50
2018-08-12T12:53:28.486Z,94.30
2018-08-12T12:55:56.894Z,95.20
2018-08-12T12:58:25.220Z,95.00
2018-08-12T13:00:53.476Z,94.50
2018-08-12T13:03:21.765Z,94.80
2018-08-12T13:05:50.007Z,94.70
2018-08-12T13:08:18.681Z,95.80
2018-08-12T13:10:47.827Z,95.10
2018-08-12T13:13:16.135Z,95.70
2018-08-12T13:15:44.409Z,95.40
2018-08-12T13:18:12.721Z,95.10
2018-08-12T13:20:40.991Z,95.60
2018-08-12T13:23:09.297Z,94.80
2018-08-12T13:25:37.596Z,95.20
2018-08-12T13:28:06.240Z,95.40
2018-08-12T13:30:35.150Z,95.60
2018-08-12T13:33:03.433Z,96.60
2018-08-12T13:35:31.708Z,96.40
2018-08-12T13:38:00.010Z,96.60
2018-08-12T13:40:28.701Z,95.60
2018-08-12T13:42:56.964Z,95.10
2018-08-12T13:45:26.072Z,95.10
2018-08-12T13:47:54.331Z,96.20
2018-08-12T13:50:23.701Z,96.60
2018-08-12T13:52:52.699Z,96.30
2018-08-12T13:55:21.610Z,95.70
2018-08-12T13:57:50.621Z,95.60
2018-08-12T14:00:20.555Z,94.00
2018-08-12T14:02:49.751Z,94.20
2018-08-12T14:05:18.660Z,94.40
2018-08-12T14:07:48.471Z,94.70
2018-08-12T14:10:16.756Z,94.60
2018-08-12T14:12:45.029Z,94.80
2018-08-12T14:15:15.384Z,94.50
2018-08-12T14:17:44.822Z,95.20
2018-08-12T14:20:14.688Z,95.00
2018-08-12T14:22:43.393Z,95.80
2018-08-12T14:25:11.839Z,95.80
2018-08-12T14:27:41.409Z,95.80
2018-08-12T14:30:12.475Z,96.30
2018-08-12T14:32:42.391Z,97.10
2018-08-12T14:35:10.683Z,98.00
2018-08-12T14:37:39.426Z,98.10
2018-08-12T14:40:09.109Z,98.80
2018-08-12T14:42:37.481Z,98.60
2018-08-12T14:45:06.801Z,99.80
2018-08-12T14:47:35.083Z,99.70
2018-08-12T14:50:04.178Z,99.90
2018-08-12T14:52:32.724Z,99.40
2018-08-12T14:55:01.376Z,99.90
2018-08-12T14:57:29.853Z,99.70
2018-08-12T14:59:58.213Z,99.20
2018-08-12T15:02:26.521Z,98.50
2018-08-12T15:04:55.284Z,97.80
2018-08-12T15:07:24.481Z,98.80
2018-08-12T15:09:52.799Z,98.50
2018-08-12T15:12:21.085Z,98.40
2018-08-12T15:14:49.440Z,98.60
2018-08-12T15:17:17.772Z,98.00
2018-08-12T15:19:46.074Z,98.20
2018-08-12T15:22:14.422Z,97.70
2018-08-12T15:24:42.748Z,97.40
2018-08-12T15:27:11.005Z,97.30
2018-08-12T15:29:39.369Z,96.70
2018-08-12T15:32:07.732Z,97.10
2018-08-12T15:34:36.018Z,96.20
2018-08-12T15:37:04.995Z,96.30
2018-08-12T15:39:33.278Z,96.60
2018-08-12T15:42:01.711Z,96.70
2018-08-12T15:44:30.074Z,96.70
2018-08-12T15:46:59.319Z,96.40
2018-08-12T15:49:27.658Z,96.10
2018-08-12T15:51:55.980Z,96.40
2018-08-12T15:54:24.569Z,96.20
2018-08-12T15:56:52.891Z,97.10
2018-08-12T15:59:22.116Z,96.50
2018-08-12T16:01:50.665Z,97.00
2018-08-12T16:04:18.926Z,96.00
2018-08-12T16:06:47.273Z,96.00
2018-08-12T16:09:15.562Z,96.40
2018-08-12T16:11:43.923Z,96.70
2018-08-12T16:14:12.234Z,97.20
2018-08-12T16:16:40.524Z,96.40
2018-08-12T16:19:08.806Z,97.20
2018-08-12T16:21:37.148Z,97.00
2018-08-12T16:24:05.601Z,97.70
2018-08-12T16:26:33.957Z,97.20
2018-08-12T16:29:02.269Z,97.40
2018-08-12T16:31:30.620Z,97.10
2018-08-12T16:33:59.354Z,97.10
2018-08-12T16:36:28.512Z,97.80
2018-08-12T16:38:57.849Z,97.50
2018-08-12T16:41:26.619Z,97.80
2018-08-12T16:43:55.064Z,98.10
2018-08-12T16:46:23.322Z,98.00
2018-08-12T16:48:51.980Z,98.40
2018-08-12T16:51:20.314Z,98.60
2018-08-12T16:53:48.624Z,98.50
2018-08-12T16:56:16.928Z,98.80
2018-08-12T16:58:45.286Z,99.10
2018-08-12T17:01:13.556Z,98.80
2018-08-12T17:03:42.814Z,98.90
2018-08-12T17:06:11.152Z,99.20
2018-08-12T17:08:39.526Z,99.20
2018-08-12T17:11:08.952Z,99.50
2018-08-12T17:13:37.291Z,99.90
2018-08-12T17:16:05.604Z,99.90
2018-08-12T17:18:33.942Z,99.90
2018-08-12T17:21:02.248Z,99.90
2018-08-12T17:23:30.931Z,99.90
2018-08-12T17:25:59.588Z,99.90
2018-08-12T17:28:28.034Z,99.90
2018-08-12T17:31:03.526Z,99.90
2018-08-12T17:33:31.960Z,99.90
2018-08-12T17:36:00.266Z,99.90
2018-08-12T17:38:28.609Z,99.90
2018-08-12T17:40:57.195Z,99.90
2018-08-12T17:43:25.509Z,99.90
2018-08-12T17:45:53.822Z,99.90
2018-08-12T17:48:22.146Z,99.90
2018-08-12T17:50:50.500Z,99.90
2018-08-12T17:53:18.814Z,99.90
2018-08-12T17:55:47.125Z,99.90
2018-08-12T17:58:15.404Z,99.90
2018-08-12T18:00:43.672Z,99.90
2018-08-12T18:03:11.938Z,99.90
2018-08-12T18:05:40.516Z,99.90
2018-08-12T18:08:08.866Z,99.90
2018-08-12T18:10:37.726Z,99.90
2018-08-12T18:13:06.023Z,99.90
2018-08-12T18:15:34.332Z,99.90
2018-08-12T18:18:02.771Z,99.90
2018-08-12T18:20:32.253Z,99.90
2018-08-12T18:23:01.221Z,99.90
2018-08-12T18:25:29.758Z,99.90
2018-08-12T18:27:58.246Z,99.90
2018-08-12T18:30:26.597Z,99.90
2018-08-12T18:32:55.725Z,99.90
2018-08-12T18:35:24.167Z,99.90
2018-08-12T18:37:52.477Z,99.90
2018-08-12T18:40:20.827Z,99.90
2018-08-12T18:42:49.518Z,99.90
2018-08-12T18:45:18.736Z,99.90
2018-08-12T18:47:47.084Z,99.90
2018-08-12T18:50:16.132Z,99.90
2018-08-12T18:52:44.490Z,99.90
2018-08-12T18:55:13.807Z,99.90
2018-08-12T18:57:43.716Z,99.90
2018-08-12T19:00:13.816Z,99.90
2018-08-12T19:02:42.187Z,99.90
2018-08-12T19:05:11.627Z,99.90
2018-08-12T19:07:40.272Z,99.90
2018-08-12T19:10:09.980Z,99.90
2018-08-12T19:12:38.355Z,99.90
2018-08-12T19:15:07.840Z,99.90
2018-08-12T19:17:36.560Z,99.90
2018-08-12T19:20:06.768Z,99.90
2018-08-12T19:22:35.739Z,99.90
2018-08-12T19:25:04.351Z,99.90
2018-08-12T19:27:32.744Z,99.90
2018-08-12T19:30:01.066Z,99.90
2018-08-12T19:32:29.879Z,99.90
2018-08-12T19:34:58.534Z,99.90
2018-08-12T19:37:26.947Z,99.90
2018-08-12T19:39:55.276Z,99.90
2018-08-12T19:42:23.694Z,99.90
2018-08-12T19:44:52.308Z,99.90
2018-08-12T19:47:20.608Z,99.90
2018-08-12T19:49:49.433Z,99.90
2018-08-12T19:52:18.070Z,99.90
2018-08-12T19:54:46.432Z,99.90
2018-08-12T19:57:15.216Z,99.90
2018-08-12T19:59:43.788Z,99.90
2018-08-12T20:02:13.040Z,99.90
2018-08-12T20:04:41.459Z,99.90
2018-08-12T20:07:09.810Z,99.90
2018-08-12T20:09:38.087Z,99.90
2018-08-12T20:12:06.979Z,99.90
2018-08-12T20:14:35.241Z,99.90
2018-08-12T20:17:03.566Z,99.90
2018-08-12T20:19:33.204Z,99.90
2018-08-12T20:22:01.532Z,99.90
2018-08-12T20:24:29.937Z,99.90
2018-08-12T20:26:59.637Z,99.90
2018-08-12T20:29:28.109Z,99.90
2018-08-12T20:31:56.485Z,99.90
2018-08-12T20:34:24.810Z,99.90
2018-08-12T20:36:53.105Z,99.90
2018-08-12T20:39:21.440Z,99.90
2018-08-12T20:41:49.838Z,99.90
2018-08-12T20:44:18.156Z,99.90
2018-08-12T20:46:46.471Z,99.90
2018-08-12T20:49:15.036Z,99.90
2018-08-12T20:51:43.510Z,99.90
2018-08-12T20:54:11.791Z,99.90
2018-08-12T20:56:40.061Z,99.90
2018-08-12T20:59:08.340Z,99.90
2018-08-12T21:01:37.530Z,99.90
2018-08-12T21:04:05.824Z,99.90
2018-08-12T21:06:34.169Z,99.90
2018-08-12T21:09:02.600Z,99.90
2018-08-12T21:11:31.104Z,99.90
2018-08-12T21:13:59.417Z,99.90
2018-08-12T21:16:27.819Z,99.90
2018-08-12T21:18:56.151Z,99.90
2018-08-12T21:21:24.481Z,99.90
2018-08-12T21:23:52.886Z,99.90
2018-08-12T21:26:21.156Z,99.90
2018-08-12T21:28:49.442Z,99.90
2018-08-12T21:31:18.034Z,99.90
2018-08-12T21:33:46.904Z,99.90
2018-08-12T21:36:15.165Z,99.90
2018-08-12T21:38:43.470Z,99.90
2018-08-12T21:41:11.710Z,99.90
2018-08-12T21:43:39.968Z,99.90
2018-08-12T21:46:08.587Z,99.90
2018-08-12T21:48:36.872Z,99.90
2018-08-12T21:51:05.128Z,99.90
2018-08-12T21:53:33.354Z,99.90
2018-08-12T21:56:01.615Z,99.90
2018-08-12T21:58:29.896Z,99.90
2018-08-12T22:00:58.325Z,99.90
2018-08-12T22:03:26.698Z,99.90
2018-08-12T22:05:55.252Z,99.90
2018-08-12T22:08:23.534Z,99.90
2018-08-12T22:10:51.833Z,99.90
2018-08-12T22:13:20.103Z,99.90
2018-08-12T22:15:48.344Z,99.90
2018-08-12T22:18:16.560Z,99.90
2018-08-12T22:20:44.824Z,99.90
2018-08-12T22:23:13.016Z,99.90
2018-08-12T22:25:41.295Z,99.90
2018-08-12T22:28:09.530Z,99.90
2018-08-12T22:30:37.757Z,99.90
2018-08-12T22:33:05.976Z,99.90
2018-08-12T22:35:34.197Z,99.90
2018-08-12T22:38:02.645Z,99.90
2018-08-12T22:40:30.935Z,99.90
2018-08-12T22:42:59.269Z,99.90
2018-08-12T22:45:27.547Z,99.90
2018-08-12T22:47:55.933Z,99.90
2018-08-12T22:50:24.194Z,99.90
2018-08-12T22:52:52.420Z,99.90
2018-08-12T22:55:20.675Z,99.90
2018-08-12T22:57:48.889Z,99.90
2018-08-12T23:00:19.014Z,99.90
2018-08-12T23:02:47.760Z,99.90
2018-08-12T23:05:16.237Z,99.90
2018-08-12T23:07:44.579Z,99.90
2018-08-12T23:10:12.915Z,99.90
2018-08-12T23:12:41.531Z,99.90
2018-08-12T23:15:21.463Z,99.90
2018-08-12T23:17:49.671Z,99.90
2018-08-12T23:20:17.899Z,99.90
2018-08-12T23:22:46.167Z,99.90
2018-08-12T23:25:14.409Z,99.90
2018-08-12T23:27:42.655Z,99.90
2018-08-12T23:30:10.852Z,99.90
2018-08-12T23:32:39.921Z,99.90
2018-08-12T23:35:08.663Z,99.90
2018-08-12T23:37:37.031Z,99.90
2018-08-12T23:40:06.221Z,99.90
2018-08-12T23:42:34.756Z,99.90
2018-08-12T23:45:02.976Z,99.90
2018-08-12T23:47:31.251Z,99.90
2018-08-12T23:49:59.532Z,99.90
2018-08-12T23:52:27.871Z,99.90
2018-08-12T23:54:56.178Z,99.90
2018-08-12T23:57:24.451Z,99.90
2018-08-12T23:59:52.971Z,99.90
